Terminal Aerodrome Forecast
Issued by NWS Memphis, TN

Home | Current Version | Previous Version | Text Only | Print | Product List | Glossary On
Versions: 1 2 3 4 5 6 7 8 9 10 11 12
830
FTUS44 KMEG 251735
TAFJBR
TAF
KJBR 251735Z 2518/2618 19005KT P6SM SCT060
     FM260300 32005KT P6SM VCSH SCT050 SCT100
     FM260700 35011KT P6SM VCSH BKN050 BKN250=

USA.gov is the U.S. government's official web portal to all federal, state and local government web resources and services.